createdAt,value
2022-12-25T00:01:45.297Z,100.00
2022-12-25T00:04:14.481Z,100.00
2022-12-25T00:06:43.771Z,100.00
2022-12-25T00:09:13.015Z,100.00
2022-12-25T00:11:43.679Z,100.00
2022-12-25T00:14:12.820Z,100.00
2022-12-25T00:16:42.101Z,100.00
2022-12-25T00:19:11.324Z,100.00
2022-12-25T00:21:40.510Z,100.00
2022-12-25T00:24:10.681Z,100.00
2022-12-25T00:26:40.591Z,100.00
2022-12-25T00:29:14.860Z,100.00
2022-12-25T00:31:44.067Z,100.00
2022-12-25T00:34:13.532Z,100.00
2022-12-25T00:36:42.630Z,100.00
2022-12-25T00:39:11.796Z,100.00
2022-12-25T00:41:54.902Z,100.00
2022-12-25T00:44:25.492Z,100.00
2022-12-25T00:46:54.811Z,100.00
2022-12-25T00:49:24.879Z,100.00
2022-12-25T00:51:55.316Z,100.00
2022-12-25T00:54:24.457Z,100.00
2022-12-25T00:56:53.709Z,100.00
2022-12-25T00:59:24.391Z,100.00
2022-12-25T01:01:53.726Z,100.00
2022-12-25T01:04:22.971Z,100.00
2022-12-25T01:06:52.146Z,100.00
2022-12-25T01:09:38.762Z,100.00
2022-12-25T01:12:08.388Z,100.00
2022-12-25T01:14:38.846Z,100.00
2022-12-25T01:17:07.945Z,100.00
2022-12-25T01:19:37.168Z,100.00
2022-12-25T01:22:06.244Z,100.00
2022-12-25T01:24:35.355Z,100.00
2022-12-25T01:27:04.469Z,100.00
2022-12-25T01:29:33.574Z,100.00
2022-12-25T01:32:04.204Z,100.00
2022-12-25T01:34:33.967Z,100.00
2022-12-25T01:37:03.524Z,100.00
2022-12-25T01:39:33.244Z,100.00
2022-12-25T01:42:02.317Z,100.00
2022-12-25T01:45:36.997Z,100.00
2022-12-25T01:48:13.249Z,100.00
2022-12-25T01:50:51.302Z,100.00
2022-12-25T01:53:20.493Z,100.00
2022-12-25T01:55:52.327Z,100.00
2022-12-25T01:58:22.336Z,100.00
2022-12-25T02:00:53.283Z,100.00
2022-12-25T02:03:24.759Z,100.00
2022-12-25T02:05:54.443Z,100.00
2022-12-25T02:08:24.350Z,100.00
2022-12-25T02:10:53.469Z,100.00
2022-12-25T02:13:22.799Z,100.00
2022-12-25T02:16:01.221Z,100.00
2022-12-25T02:18:43.614Z,100.00
2022-12-25T02:21:49.972Z,100.00
2022-12-25T02:24:48.619Z,100.00
2022-12-25T02:27:30.251Z,100.00
2022-12-25T02:30:06.656Z,100.00
2022-12-25T02:32:44.211Z,100.00
2022-12-25T02:35:18.486Z,100.00
2022-12-25T02:37:52.928Z,100.00
2022-12-25T02:40:30.823Z,100.00
2022-12-25T02:43:22.657Z,100.00
2022-12-25T02:46:23.891Z,100.00
2022-12-25T02:49:11.511Z,100.00
2022-12-25T02:52:03.686Z,100.00
2022-12-25T02:54:51.877Z,100.00
2022-12-25T02:57:44.859Z,100.00
2022-12-25T03:00:33.586Z,100.00
2022-12-25T03:03:26.089Z,100.00
2022-12-25T03:06:17.272Z,100.00
2022-12-25T03:08:53.139Z,100.00
2022-12-25T03:11:33.378Z,100.00
2022-12-25T03:14:21.407Z,100.00
2022-12-25T03:16:54.362Z,100.00
2022-12-25T03:19:47.914Z,100.00
2022-12-25T03:22:40.542Z,100.00
2022-12-25T03:25:37.043Z,100.00
2022-12-25T03:28:07.054Z,100.00
2022-12-25T03:31:02.852Z,100.00
2022-12-25T03:34:08.082Z,100.00
2022-12-25T03:36:50.654Z,100.00
2022-12-25T03:39:56.314Z,100.00
2022-12-25T03:43:00.978Z,100.00
2022-12-25T03:45:56.033Z,100.00
2022-12-25T03:48:44.775Z,100.00
2022-12-25T03:51:34.136Z,100.00
2022-12-25T03:54:25.449Z,100.00
2022-12-25T03:57:14.033Z,100.00
2022-12-25T04:00:00.662Z,100.00
2022-12-25T04:02:47.404Z,100.00
2022-12-25T04:05:34.162Z,100.00
2022-12-25T04:08:20.649Z,100.00
2022-12-25T04:11:09.125Z,100.00
2022-12-25T04:13:55.690Z,100.00
2022-12-25T04:16:41.523Z,100.00
2022-12-25T04:19:29.046Z,100.00
2022-12-25T04:22:15.596Z,100.00
2022-12-25T04:25:02.309Z,100.00
2022-12-25T04:27:50.459Z,100.00
2022-12-25T04:30:36.997Z,100.00
2022-12-25T04:33:32.075Z,100.00
2022-12-25T04:36:13.184Z,100.00
2022-12-25T04:38:43.044Z,100.00
2022-12-25T04:41:14.290Z,100.00
2022-12-25T04:43:44.877Z,100.00
2022-12-25T04:46:14.063Z,100.00
2022-12-25T04:48:43.206Z,100.00
2022-12-25T04:51:17.876Z,100.00
2022-12-25T04:53:51.099Z,100.00
2022-12-25T04:56:21.189Z,100.00
2022-12-25T04:58:54.581Z,100.00
2022-12-25T05:01:24.174Z,100.00
2022-12-25T05:03:53.417Z,100.00
2022-12-25T05:06:22.830Z,100.00
2022-12-25T05:08:51.982Z,100.00
2022-12-25T05:11:21.174Z,100.00
2022-12-25T05:13:51.797Z,100.00
2022-12-25T05:16:22.314Z,100.00
2022-12-25T05:18:52.512Z,100.00
2022-12-25T05:21:22.295Z,100.00
2022-12-25T05:23:52.172Z,100.00
2022-12-25T05:26:25.158Z,100.00
2022-12-25T05:28:56.668Z,100.00
2022-12-25T05:31:25.786Z,100.00
2022-12-25T05:33:54.920Z,100.00
2022-12-25T05:36:24.173Z,100.00
2022-12-25T05:38:53.351Z,100.00
2022-12-25T05:41:22.565Z,100.00
2022-12-25T05:43:51.628Z,100.00
2022-12-25T05:46:22.142Z,100.00
2022-12-25T05:48:51.244Z,100.00
2022-12-25T05:51:20.417Z,100.00
2022-12-25T05:53:49.988Z,100.00
2022-12-25T05:56:19.101Z,100.00
2022-12-25T05:58:48.195Z,100.00
2022-12-25T06:01:20.973Z,100.00
2022-12-25T06:03:51.676Z,100.00
2022-12-25T06:06:21.199Z,100.00
2022-12-25T06:08:50.271Z,100.00
2022-12-25T06:11:19.357Z,100.00
2022-12-25T06:13:52.015Z,100.00
2022-12-25T06:16:22.009Z,100.00
2022-12-25T06:18:53.234Z,100.00
2022-12-25T06:21:22.284Z,100.00
2022-12-25T06:23:51.800Z,100.00
2022-12-25T06:26:21.734Z,100.00
2022-12-25T06:28:51.031Z,100.00
2022-12-25T06:31:23.375Z,100.00
2022-12-25T06:33:53.998Z,100.00
2022-12-25T06:36:25.840Z,100.00
2022-12-25T06:38:55.359Z,100.00
2022-12-25T06:41:26.788Z,100.00
2022-12-25T06:43:58.717Z,100.00
2022-12-25T06:46:30.764Z,100.00
2022-12-25T06:49:01.933Z,100.00
2022-12-25T06:51:33.203Z,100.00
2022-12-25T06:54:04.356Z,100.00
2022-12-25T06:56:35.168Z,100.00
2022-12-25T06:59:07.057Z,100.00
2022-12-25T07:01:40.839Z,100.00
2022-12-25T07:04:17.350Z,100.00
2022-12-25T07:06:46.848Z,100.00
2022-12-25T07:09:16.028Z,100.00
2022-12-25T07:11:45.194Z,100.00
2022-12-25T07:14:23.740Z,100.00
2022-12-25T07:16:53.704Z,100.00
2022-12-25T07:19:24.367Z,100.00
2022-12-25T07:21:53.508Z,100.00
2022-12-25T07:24:23.214Z,100.00
2022-12-25T07:26:53.187Z,100.00
2022-12-25T07:29:22.333Z,100.00
2022-12-25T07:31:51.553Z,100.00
2022-12-25T07:34:21.149Z,100.00
2022-12-25T07:36:52.132Z,100.00
2022-12-25T07:39:21.579Z,100.00
2022-12-25T07:41:51.094Z,100.00
2022-12-25T07:44:20.528Z,100.00
2022-12-25T07:46:49.907Z,100.00
2022-12-25T07:49:19.113Z,100.00
2022-12-25T07:51:48.280Z,100.00
2022-12-25T07:54:19.033Z,100.00
2022-12-25T07:56:51.195Z,100.00
2022-12-25T07:59:20.756Z,100.00
2022-12-25T08:01:51.325Z,100.00
2022-12-25T08:04:20.736Z,100.00
2022-12-25T08:06:49.926Z,100.00
2022-12-25T08:09:20.528Z,100.00
2022-12-25T08:11:49.694Z,100.00
2022-12-25T08:14:19.029Z,100.00
2022-12-25T08:16:48.180Z,100.00
2022-12-25T08:19:17.453Z,100.00
2022-12-25T08:21:51.929Z,100.00
2022-12-25T08:24:30.523Z,100.00
2022-12-25T08:26:59.665Z,100.00
2022-12-25T08:29:29.546Z,100.00
2022-12-25T08:31:59.562Z,100.00
2022-12-25T08:34:28.715Z,100.00
2022-12-25T08:36:57.981Z,100.00
2022-12-25T08:39:28.679Z,100.00
2022-12-25T08:41:57.974Z,100.00
2022-12-25T08:44:27.482Z,100.00
2022-12-25T08:46:59.548Z,100.00
2022-12-25T08:49:29.199Z,100.00
2022-12-25T08:51:58.632Z,100.00
2022-12-25T08:54:31.027Z,100.00
2022-12-25T08:57:02.826Z,100.00
2022-12-25T08:59:32.709Z,100.00
2022-12-25T09:02:01.945Z,100.00
2022-12-25T09:04:31.108Z,100.00
2022-12-25T09:07:00.216Z,100.00
2022-12-25T09:09:31.892Z,100.00
2022-12-25T09:12:01.046Z,100.00
2022-12-25T09:14:31.455Z,100.00
2022-12-25T09:17:00.562Z,100.00
2022-12-25T09:19:29.853Z,100.00
2022-12-25T09:21:59.015Z,100.00
2022-12-25T09:24:28.346Z,100.00
2022-12-25T09:26:58.869Z,100.00
2022-12-25T09:29:27.982Z,100.00
2022-12-25T09:31:57.304Z,100.00
2022-12-25T09:34:26.374Z,100.00
2022-12-25T09:36:55.570Z,100.00
2022-12-25T09:39:24.862Z,100.00
2022-12-25T09:42:01.012Z,100.00
2022-12-25T09:44:36.078Z,100.00
2022-12-25T09:47:11.933Z,100.00
2022-12-25T09:49:49.645Z,100.00
2022-12-25T09:52:25.248Z,100.00
2022-12-25T09:55:00.995Z,100.00
2022-12-25T09:57:31.510Z,100.00
2022-12-25T10:00:00.778Z,100.00
2022-12-25T10:03:18.094Z,100.00
2022-12-25T10:06:15.323Z,100.00
2022-12-25T10:09:14.078Z,100.00
2022-12-25T10:12:05.348Z,100.00
2022-12-25T10:14:46.906Z,100.00
2022-12-25T10:17:33.828Z,100.00
2022-12-25T10:20:15.084Z,100.00
2022-12-25T10:22:47.766Z,100.00
2022-12-25T10:25:21.054Z,100.00
2022-12-25T10:27:54.029Z,100.00
2022-12-25T10:30:27.613Z,100.00
2022-12-25T10:32:58.982Z,100.00
2022-12-25T10:35:32.863Z,100.00
2022-12-25T10:38:04.308Z,100.00
2022-12-25T10:40:45.425Z,100.00
2022-12-25T10:43:20.931Z,100.00
2022-12-25T10:45:51.774Z,100.00
2022-12-25T10:48:26.485Z,100.00
2022-12-25T10:50:55.656Z,100.00
2022-12-25T10:53:27.749Z,100.00
2022-12-25T10:55:59.972Z,100.00
2022-12-25T10:58:30.341Z,100.00
2022-12-25T11:01:05.002Z,100.00
2022-12-25T11:03:38.621Z,100.00
2022-12-25T11:06:22.415Z,100.00
2022-12-25T11:08:55.495Z,100.00
2022-12-25T11:11:25.403Z,100.00
2022-12-25T11:13:57.956Z,100.00
2022-12-25T11:16:32.168Z,100.00
2022-12-25T11:19:01.850Z,100.00
2022-12-25T11:21:35.273Z,100.00
2022-12-25T11:24:07.111Z,100.00
2022-12-25T11:26:49.742Z,100.00
2022-12-25T11:29:32.230Z,100.00
2022-12-25T11:32:06.373Z,100.00
2022-12-25T11:34:42.220Z,100.00
2022-12-25T11:37:17.876Z,100.00
2022-12-25T11:39:47.054Z,100.00
2022-12-25T11:42:23.796Z,100.00
2022-12-25T11:45:02.342Z,100.00
2022-12-25T11:47:39.930Z,100.00
2022-12-25T11:50:24.227Z,100.00
2022-12-25T11:52:54.342Z,100.00
2022-12-25T11:55:36.647Z,100.00
2022-12-25T11:58:16.049Z,100.00
2022-12-25T12:00:51.042Z,100.00
2022-12-25T12:03:28.162Z,100.00
2022-12-25T12:06:03.035Z,100.00
2022-12-25T12:08:34.464Z,100.00
2022-12-25T12:11:20.682Z,100.00
2022-12-25T12:14:13.574Z,100.00
2022-12-25T12:16:42.872Z,100.00
2022-12-25T12:19:25.738Z,100.00
2022-12-25T12:21:58.482Z,100.00
2022-12-25T12:24:34.703Z,100.00
2022-12-25T12:27:07.053Z,100.00
2022-12-25T12:29:44.446Z,100.00
2022-12-25T12:32:29.041Z,100.00
2022-12-25T12:34:59.987Z,100.00
2022-12-25T12:37:34.002Z,100.00
2022-12-25T12:40:06.475Z,100.00
2022-12-25T12:42:46.350Z,100.00
2022-12-25T12:45:21.974Z,100.00
2022-12-25T12:47:53.088Z,100.00
2022-12-25T12:50:34.920Z,100.00
2022-12-25T12:53:29.892Z,100.00
2022-12-25T12:56:11.714Z,100.00
2022-12-25T12:58:50.048Z,97.99
2022-12-25T13:01:40.866Z,99.92
2022-12-25T13:04:41.820Z,100.00
2022-12-25T13:07:33.119Z,100.00
2022-12-25T13:10:14.745Z,100.00
2022-12-25T13:12:43.934Z,100.00
2022-12-25T13:15:15.307Z,100.00
2022-12-25T13:17:46.902Z,100.00
2022-12-25T13:20:24.939Z,98.88
2022-12-25T13:22:55.473Z,95.09
2022-12-25T13:25:25.718Z,93.48
2022-12-25T13:27:59.631Z,90.62
2022-12-25T13:30:29.080Z,88.84
2022-12-25T13:33:00.254Z,88.00
2022-12-25T13:35:29.435Z,88.73
2022-12-25T13:38:00.154Z,90.22
2022-12-25T13:40:30.070Z,91.90
2022-12-25T13:43:00.911Z,91.85
2022-12-25T13:45:34.013Z,91.31
2022-12-25T13:48:15.888Z,91.07
2022-12-25T13:50:48.669Z,90.96
2022-12-25T13:53:19.354Z,88.45
2022-12-25T13:55:53.399Z,86.22
2022-12-25T13:58:28.615Z,81.23
2022-12-25T14:00:59.883Z,76.10
2022-12-25T14:03:36.992Z,74.44
2022-12-25T14:06:15.416Z,76.28
2022-12-25T14:08:47.357Z,78.45
2022-12-25T14:11:20.567Z,78.13
2022-12-25T14:13:53.100Z,81.52
2022-12-25T14:16:22.997Z,84.14
2022-12-25T14:18:54.911Z,87.22
2022-12-25T14:21:30.209Z,89.73
2022-12-25T14:24:01.250Z,92.52
2022-12-25T14:26:34.239Z,94.76
2022-12-25T14:29:17.148Z,97.99
2022-12-25T14:31:48.383Z,99.76
2022-12-25T14:34:23.089Z,100.00
2022-12-25T14:36:53.541Z,100.00
2022-12-25T14:39:33.687Z,96.74
2022-12-25T14:42:14.470Z,91.35
2022-12-25T14:44:43.598Z,89.64
2022-12-25T14:47:20.252Z,99.70
2022-12-25T14:49:49.834Z,100.00
2022-12-25T14:52:22.940Z,100.00
2022-12-25T14:54:58.127Z,100.00
2022-12-25T14:57:31.999Z,100.00
2022-12-25T15:00:07.963Z,100.00
2022-12-25T15:02:46.795Z,100.00
2022-12-25T15:05:32.189Z,100.00
2022-12-25T15:08:26.591Z,100.00
2022-12-25T15:11:01.880Z,100.00
2022-12-25T15:13:32.661Z,100.00
2022-12-25T15:16:07.714Z,100.00
2022-12-25T15:18:42.071Z,100.00
2022-12-25T15:21:17.904Z,100.00
2022-12-25T15:23:47.362Z,100.00
2022-12-25T15:26:18.229Z,100.00
2022-12-25T15:28:47.403Z,100.00
2022-12-25T15:31:23.609Z,100.00
2022-12-25T15:33:53.672Z,100.00
2022-12-25T15:36:23.619Z,100.00
2022-12-25T15:38:53.443Z,100.00
2022-12-25T15:41:46.414Z,100.00
2022-12-25T15:44:16.775Z,100.00
2022-12-25T15:46:46.441Z,100.00
2022-12-25T15:49:17.213Z,100.00
2022-12-25T15:51:47.198Z,100.00
2022-12-25T15:54:16.496Z,100.00
2022-12-25T15:56:50.039Z,100.00
2022-12-25T15:59:21.735Z,100.00
2022-12-25T16:01:53.688Z,100.00
2022-12-25T16:04:24.189Z,100.00
2022-12-25T16:06:54.321Z,100.00
2022-12-25T16:09:23.802Z,100.00
2022-12-25T16:11:54.705Z,100.00
2022-12-25T16:14:23.933Z,100.00
2022-12-25T16:16:53.190Z,100.00
2022-12-25T16:19:22.195Z,100.00
2022-12-25T16:21:51.376Z,100.00
2022-12-25T16:24:20.528Z,100.00
2022-12-25T16:26:49.960Z,100.00
2022-12-25T16:29:20.445Z,100.00
2022-12-25T16:31:49.634Z,100.00
2022-12-25T16:34:18.752Z,100.00
2022-12-25T16:36:47.872Z,100.00
2022-12-25T16:39:16.952Z,100.00
2022-12-25T16:41:46.923Z,100.00
2022-12-25T16:44:16.092Z,100.00
2022-12-25T16:46:46.740Z,100.00
2022-12-25T16:49:15.886Z,100.00
2022-12-25T16:51:45.006Z,100.00
2022-12-25T16:54:14.129Z,100.00
2022-12-25T16:56:43.314Z,100.00
2022-12-25T16:59:13.302Z,100.00
2022-12-25T17:01:44.089Z,100.00
2022-12-25T17:04:15.460Z,100.00
2022-12-25T17:06:47.334Z,100.00
2022-12-25T17:09:17.101Z,100.00
2022-12-25T17:11:51.912Z,100.00
2022-12-25T17:14:25.582Z,100.00
2022-12-25T17:17:00.682Z,100.00
2022-12-25T17:19:31.638Z,100.00
2022-12-25T17:22:01.210Z,100.00
2022-12-25T17:24:30.716Z,100.00
2022-12-25T17:27:00.031Z,100.00
2022-12-25T17:29:29.558Z,100.00
2022-12-25T17:32:01.850Z,100.00
2022-12-25T17:34:33.032Z,100.00
2022-12-25T17:37:03.164Z,100.00
2022-12-25T17:39:35.650Z,100.00
2022-12-25T17:42:05.608Z,100.00
2022-12-25T17:44:35.045Z,100.00
2022-12-25T17:47:04.777Z,100.00
2022-12-25T17:49:36.825Z,100.00
2022-12-25T17:52:06.671Z,100.00
2022-12-25T17:54:40.839Z,100.00
2022-12-25T17:57:11.459Z,100.00
2022-12-25T17:59:40.961Z,100.00
2022-12-25T18:02:12.143Z,100.00
2022-12-25T18:04:47.369Z,100.00
2022-12-25T18:07:17.674Z,100.00
2022-12-25T18:09:47.193Z,100.00
2022-12-25T18:12:16.586Z,100.00
2022-12-25T18:14:45.931Z,100.00
2022-12-25T18:17:15.474Z,100.00
2022-12-25T18:19:46.019Z,100.00
2022-12-25T18:22:15.698Z,100.00
2022-12-25T18:24:48.523Z,100.00
2022-12-25T18:27:23.378Z,100.00
2022-12-25T18:29:55.488Z,100.00
2022-12-25T18:32:27.959Z,100.00
2022-12-25T18:34:58.861Z,100.00
2022-12-25T18:37:31.926Z,100.00
2022-12-25T18:40:05.092Z,100.00
2022-12-25T18:42:40.095Z,100.00
2022-12-25T18:45:12.653Z,100.00
2022-12-25T18:47:41.962Z,100.00
2022-12-25T18:50:13.519Z,100.00
2022-12-25T18:52:49.304Z,100.00
2022-12-25T18:55:20.777Z,100.00
2022-12-25T18:57:50.155Z,100.00
2022-12-25T19:00:20.251Z,100.00
2022-12-25T19:02:49.698Z,100.00
2022-12-25T19:05:20.371Z,100.00
2022-12-25T19:07:49.731Z,100.00
2022-12-25T19:10:19.452Z,100.00
2022-12-25T19:12:48.728Z,100.00
2022-12-25T19:15:18.118Z,100.00
2022-12-25T19:17:47.347Z,100.00
2022-12-25T19:20:16.881Z,100.00
2022-12-25T19:22:47.745Z,100.00
2022-12-25T19:25:18.580Z,100.00
2022-12-25T19:27:48.197Z,100.00
2022-12-25T19:30:18.471Z,100.00
2022-12-25T19:32:48.774Z,100.00
2022-12-25T19:35:19.652Z,100.00
2022-12-25T19:37:50.326Z,100.00
2022-12-25T19:40:20.452Z,100.00
2022-12-25T19:42:50.083Z,100.00
2022-12-25T19:45:21.986Z,100.00
2022-12-25T19:47:52.986Z,100.00
2022-12-25T19:50:22.408Z,100.00
2022-12-25T19:52:53.256Z,100.00
2022-12-25T19:55:22.789Z,100.00
2022-12-25T19:57:52.440Z,100.00
2022-12-25T20:00:23.407Z,100.00
2022-12-25T20:02:54.048Z,100.00
2022-12-25T20:05:29.371Z,100.00
2022-12-25T20:08:00.333Z,100.00
2022-12-25T20:10:32.963Z,100.00
2022-12-25T20:13:02.150Z,100.00
2022-12-25T20:15:33.121Z,100.00
2022-12-25T20:18:04.158Z,100.00
2022-12-25T20:20:33.872Z,100.00
2022-12-25T20:23:05.818Z,100.00
2022-12-25T20:25:35.083Z,100.00
2022-12-25T20:28:04.405Z,100.00
2022-12-25T20:30:33.632Z,100.00
2022-12-25T20:33:02.884Z,100.00
2022-12-25T20:35:32.104Z,100.00
2022-12-25T20:38:01.410Z,100.00
2022-12-25T20:40:46.807Z,100.00
2022-12-25T20:43:21.324Z,100.00
2022-12-25T20:45:52.888Z,100.00
2022-12-25T20:48:22.365Z,100.00
2022-12-25T20:50:52.433Z,100.00
2022-12-25T20:53:24.567Z,100.00
2022-12-25T20:55:55.289Z,100.00
2022-12-25T20:58:24.353Z,100.00
2022-12-25T21:00:54.160Z,100.00
2022-12-25T21:03:23.607Z,100.00
2022-12-25T21:05:54.843Z,100.00
2022-12-25T21:08:26.773Z,100.00
2022-12-25T21:11:01.081Z,100.00
2022-12-25T21:13:33.101Z,100.00
2022-12-25T21:16:06.209Z,100.00
2022-12-25T21:18:36.834Z,100.00
2022-12-25T21:21:07.905Z,100.00
2022-12-25T21:23:40.115Z,100.00
2022-12-25T21:26:22.076Z,100.00
2022-12-25T21:28:55.672Z,100.00
2022-12-25T21:31:26.504Z,100.00
2022-12-25T21:33:55.893Z,100.00
2022-12-25T21:36:27.901Z,100.00
2022-12-25T21:39:00.314Z,100.00
2022-12-25T21:41:33.595Z,100.00
2022-12-25T21:44:03.440Z,100.00
2022-12-25T21:46:33.949Z,100.00
2022-12-25T21:49:03.437Z,100.00
2022-12-25T21:51:52.739Z,100.00
2022-12-25T21:54:24.282Z,100.00
2022-12-25T21:56:55.295Z,100.00
2022-12-25T21:59:24.595Z,100.00
2022-12-25T22:01:54.334Z,100.00
2022-12-25T22:04:24.808Z,100.00
2022-12-25T22:07:11.550Z,100.00
2022-12-25T22:09:40.764Z,100.00
2022-12-25T22:12:34.173Z,100.00
2022-12-25T22:15:06.819Z,100.00
2022-12-25T22:17:56.599Z,100.00
2022-12-25T22:20:28.255Z,100.00
2022-12-25T22:22:58.016Z,100.00
2022-12-25T22:25:27.687Z,100.00
2022-12-25T22:27:59.368Z,100.00
2022-12-25T22:30:30.871Z,100.00
2022-12-25T22:33:00.081Z,100.00
2022-12-25T22:35:29.274Z,100.00
2022-12-25T22:37:58.840Z,100.00
2022-12-25T22:40:28.171Z,100.00
2022-12-25T22:42:58.808Z,100.00
2022-12-25T22:45:27.858Z,100.00
2022-12-25T22:47:57.144Z,100.00
2022-12-25T22:50:26.239Z,100.00
2022-12-25T22:52:55.411Z,100.00
2022-12-25T22:55:24.701Z,100.00
2022-12-25T22:57:53.819Z,100.00
2022-12-25T23:00:24.465Z,100.00
2022-12-25T23:02:53.746Z,100.00
2022-12-25T23:05:23.001Z,100.00
2022-12-25T23:07:53.801Z,100.00
2022-12-25T23:10:23.165Z,100.00
2022-12-25T23:13:09.464Z,100.00
2022-12-25T23:15:41.579Z,100.00
2022-12-25T23:18:28.408Z,100.00
2022-12-25T23:21:19.035Z,100.00
2022-12-25T23:24:04.771Z,100.00
2022-12-25T23:26:33.882Z,100.00
2022-12-25T23:29:20.539Z,100.00
2022-12-25T23:31:53.590Z,100.00
2022-12-25T23:34:23.510Z,100.00
2022-12-25T23:36:52.763Z,100.00
2022-12-25T23:39:22.312Z,100.00
2022-12-25T23:41:51.573Z,100.00
2022-12-25T23:44:20.994Z,100.00
2022-12-25T23:46:52.738Z,100.00
2022-12-25T23:49:23.930Z,100.00
2022-12-25T23:51:53.760Z,100.00
2022-12-25T23:54:26.119Z,100.00
2022-12-25T23:56:57.340Z,100.00
2022-12-25T23:59:27.384Z,100.00
